Time;durP1;ratioP1;P1;durP2;ratioP2;P2;SDS_P1;SDS_P2;PMS_P1;PMS_P2;Temp;Humidity;BMP_temperature;BMP_pressure;BME280_temperature;BME280_humidity;BME280_pressure;Samples;Min_cycle;Max_cycle;Signal;HPM_P1;HPM_P2
2023/08/04 00:00:53;;;;;;;1.80;0.40;;;;;;;;;;5011501;28;20029;-77
2023/08/04 00:03:19;;;;;;;3.38;0.40;;;;;;;;;;5011753;28;20550;-76
2023/08/04 00:05:44;;;;;;;0.45;0.30;;;;;;;;;;4994067;28;20108;-77
2023/08/04 00:08:10;;;;;;;0.50;0.35;;;;;;;;;;4993468;28;20121;-77
2023/08/04 00:10:35;;;;;;;0.50;0.30;;;;;;;;;;4993661;28;20132;-76
2023/08/04 00:13:01;;;;;;;0.80;0.25;;;;;;;;;;5011234;28;20022;-77
2023/08/04 00:15:26;;;;;;;0.55;0.45;;;;;;;;;;5010845;28;20034;-77
2023/08/04 00:17:52;;;;;;;2.85;0.50;;;;;;;;;;5010932;28;20446;-76
2023/08/04 00:20:17;;;;;;;0.55;0.30;;;;;;;;;;5011697;28;20052;-78
2023/08/04 00:22:43;;;;;;;0.70;0.30;;;;;;;;;;5012695;28;20080;-78
2023/08/04 00:25:08;;;;;;;2.05;0.60;;;;;;;;;;5015824;28;20029;-77
2023/08/04 00:27:34;;;;;;;1.70;0.38;;;;;;;;;;4996691;28;20034;-77
2023/08/04 00:30:00;;;;;;;1.52;0.30;;;;;;;;;;5013346;28;20040;-77
2023/08/04 00:32:26;;;;;;;0.82;0.30;;;;;;;;;;5019013;28;20053;-75
2023/08/04 00:34:52;;;;;;;0.70;0.50;;;;;;;;;;5015253;28;20041;-77
2023/08/04 00:37:17;;;;;;;0.73;0.60;;;;;;;;;;5014181;28;20567;-77
2023/08/04 00:39:43;;;;;;;0.50;0.43;;;;;;;;;;5016303;28;20113;-76
2023/08/04 00:42:09;;;;;;;1.27;0.50;;;;;;;;;;5017624;28;20170;-77
2023/08/04 00:44:34;;;;;;;1.00;0.50;;;;;;;;;;5017072;28;20446;-76
2023/08/04 00:47:00;;;;;;;1.50;0.40;;;;;;;;;;5023212;28;20046;-77
2023/08/04 00:49:25;;;;;;;6.72;0.60;;;;;;;;;;5017888;28;20030;-77
2023/08/04 00:51:51;;;;;;;1.60;0.80;;;;;;;;;;5018085;28;20022;-76
2023/08/04 00:54:17;;;;;;;3.03;1.20;;;;;;;;;;5013579;28;20538;-77
2023/08/04 00:56:42;;;;;;;2.38;0.70;;;;;;;;;;5013894;28;20022;-77
2023/08/04 00:59:09;;;;;;;2.50;0.45;;;;;;;;;;5014412;28;20084;-76
2023/08/04 01:01:35;;;;;;;1.85;0.45;;;;;;;;;;5013650;28;20034;-76
2023/08/04 01:04:00;;;;;;;1.15;0.40;;;;;;;;;;5029420;28;20037;-76
2023/08/04 01:06:44;;;;;;;1.25;0.50;;;;;;;;;;5012737;28;20038;-77
2023/08/04 01:09:26;;;;;;;1.33;0.73;;;;;;;;;;5012782;28;20023;-77
2023/08/04 01:11:57;;;;;;;0.70;0.55;;;;;;;;;;5012111;28;20024;-79
2023/08/04 01:14:24;;;;;;;;;;;;;;;;;;5014004;28;20053;-78
2023/08/04 01:16:49;;;;;;;2.13;0.60;;;;;;;;;;5013103;28;19915;-78
2023/08/04 01:19:15;;;;;;;1.10;0.75;;;;;;;;;;5023372;28;20113;-78
2023/08/04 01:21:42;;;;;;;2.90;0.60;;;;;;;;;;5036948;28;20403;-79
2023/08/04 01:24:07;;;;;;;0.75;0.30;;;;;;;;;;5037859;28;20054;-79
2023/08/04 01:26:37;;;;;;;1.08;0.47;;;;;;;;;;5018022;28;20025;-79
2023/08/04 01:29:03;;;;;;;0.80;0.35;;;;;;;;;;5015194;28;20371;-79
2023/08/04 01:31:29;;;;;;;1.83;0.43;;;;;;;;;;5013852;28;20021;-79
2023/08/04 01:33:55;;;;;;;2.50;0.50;;;;;;;;;;5012937;28;20021;-79
2023/08/04 01:36:20;;;;;;;1.38;0.35;;;;;;;;;;5012240;28;20026;-79
2023/08/04 01:38:46;;;;;;;0.38;0.20;;;;;;;;;;4995578;28;20022;-79
2023/08/04 01:41:13;;;;;;;1.70;0.43;;;;;;;;;;5014109;28;20025;-79
2023/08/04 01:43:39;;;;;;;0.98;0.50;;;;;;;;;;5012724;28;20022;-79
2023/08/04 01:46:04;;;;;;;1.63;0.30;;;;;;;;;;5011624;28;20430;-80
2023/08/04 01:48:30;;;;;;;4.03;0.40;;;;;;;;;;5013025;28;20037;-79
2023/08/04 01:50:55;;;;;;;0.80;0.60;;;;;;;;;;5011247;28;20393;-78
2023/08/04 01:53:21;;;;;;;0.77;0.50;;;;;;;;;;4994792;28;20056;-79
2023/08/04 01:55:49;;;;;;;1.38;0.55;;;;;;;;;;5012445;28;20033;-78
2023/08/04 01:58:15;;;;;;;0.45;0.28;;;;;;;;;;4995236;28;20025;-77
2023/08/04 02:00:41;;;;;;;0.60;0.30;;;;;;;;;;5012481;28;20445;-79
2023/08/04 02:03:06;;;;;;;1.05;0.40;;;;;;;;;;4995027;28;20117;-78
2023/08/04 02:05:32;;;;;;;0.50;0.28;;;;;;;;;;4995468;28;20026;-79
2023/08/04 02:07:58;;;;;;;0.80;0.40;;;;;;;;;;4994999;28;20030;-79
2023/08/04 02:10:23;;;;;;;0.50;0.38;;;;;;;;;;4995217;28;20553;-79
2023/08/04 02:12:49;;;;;;;2.17;0.43;;;;;;;;;;5012805;28;20029;-78
2023/08/04 02:15:14;;;;;;;0.93;0.60;;;;;;;;;;5013435;28;20032;-80
2023/08/04 02:17:40;;;;;;;0.50;0.50;;;;;;;;;;5013927;28;20026;-78
2023/08/04 02:20:06;;;;;;;1.48;0.38;;;;;;;;;;4997215;28;20363;-78
2023/08/04 02:22:31;;;;;;;0.75;0.40;;;;;;;;;;5016031;28;20559;-77
2023/08/04 02:24:56;;;;;;;1.33;0.30;;;;;;;;;;5011881;28;20030;-79
2023/08/04 02:27:22;;;;;;;0.77;0.52;;;;;;;;;;5010816;28;20556;-78
2023/08/04 02:29:47;;;;;;;0.77;0.40;;;;;;;;;;5011935;28;20110;-79
2023/08/04 02:32:13;;;;;;;1.13;0.40;;;;;;;;;;5014816;28;20562;-80
2023/08/04 02:34:38;;;;;;;2.10;0.50;;;;;;;;;;5026994;28;20022;-79
2023/08/04 02:37:04;;;;;;;1.38;0.30;;;;;;;;;;5011378;28;20030;-78
2023/08/04 02:39:34;;;;;;;1.13;0.30;;;;;;;;;;5011280;28;20479;-79
2023/08/04 02:42:00;;;;;;;0.57;0.43;;;;;;;;;;5010344;28;20041;-78
2023/08/04 02:44:25;;;;;;;0.63;0.28;;;;;;;;;;5011416;28;20021;-79
2023/08/04 02:46:51;;;;;;;3.55;0.50;;;;;;;;;;5011907;28;20486;-80
2023/08/04 02:49:16;;;;;;;0.20;0.20;;;;;;;;;;5011110;28;20041;-81
2023/08/04 02:51:42;;;;;;;0.98;0.35;;;;;;;;;;5010576;28;20606;-79
2023/08/04 02:54:09;;;;;;;0.45;0.20;;;;;;;;;;5012106;28;20402;-77
2023/08/04 02:56:35;;;;;;;0.98;0.40;;;;;;;;;;5020561;28;20014;-78
2023/08/04 02:59:00;;;;;;;0.73;0.35;;;;;;;;;;5029392;28;20061;-78
2023/08/04 03:01:26;;;;;;;0.40;0.40;;;;;;;;;;5037934;28;20057;-78
2023/08/04 03:03:51;;;;;;;1.15;0.40;;;;;;;;;;5019267;28;20036;-79
2023/08/04 03:06:17;;;;;;;1.10;0.50;;;;;;;;;;5012081;28;20032;-79
2023/08/04 03:08:42;;;;;;;2.95;0.40;;;;;;;;;;5012027;28;20100;-79
2023/08/04 03:11:11;;;;;;;2.08;0.50;;;;;;;;;;5026525;28;20123;-79
2023/08/04 03:13:38;;;;;;;1.98;0.50;;;;;;;;;;5026381;28;20409;-79
2023/08/04 03:16:04;;;;;;;1.95;0.70;;;;;;;;;;5000158;28;20142;-79
2023/08/04 03:18:30;;;;;;;1.58;0.50;;;;;;;;;;4991860;28;20079;-77
2023/08/04 03:20:55;;;;;;;0.75;0.45;;;;;;;;;;4997629;28;20113;-78
2023/08/04 03:23:21;;;;;;;2.83;0.55;;;;;;;;;;5010946;28;20037;-78
2023/08/04 03:25:47;;;;;;;0.52;0.20;;;;;;;;;;5003081;28;20034;-78
2023/08/04 03:28:13;;;;;;;0.70;0.68;;;;;;;;;;4991487;28;20378;-79
2023/08/04 03:30:39;;;;;;;1.23;0.47;;;;;;;;;;4990074;28;20034;-78
2023/08/04 03:33:04;;;;;;;2.25;0.40;;;;;;;;;;4991117;28;20096;-79
2023/08/04 03:35:30;;;;;;;1.95;0.50;;;;;;;;;;4990134;28;20034;-80
2023/08/04 03:37:56;;;;;;;3.47;0.60;;;;;;;;;;4991470;28;20034;-78
2023/08/04 03:40:21;;;;;;;1.05;0.70;;;;;;;;;;4991662;28;20113;-78
2023/08/04 03:42:47;;;;;;;3.15;0.50;;;;;;;;;;4973932;28;20093;-78
2023/08/04 03:45:13;;;;;;;3.05;1.00;;;;;;;;;;4991966;28;20030;-77
2023/08/04 03:47:40;;;;;;;1.20;0.63;;;;;;;;;;4975038;28;20030;-76
2023/08/04 03:50:06;;;;;;;0.70;0.65;;;;;;;;;;4974125;28;20054;-77
2023/08/04 03:52:32;;;;;;;2.50;0.75;;;;;;;;;;4991486;28;20034;-78
2023/08/04 03:54:58;;;;;;;0.73;0.50;;;;;;;;;;4990407;28;20076;-78
2023/08/04 03:57:23;;;;;;;1.00;0.70;;;;;;;;;;4995551;28;20026;-77
2023/08/04 03:59:52;;;;;;;1.38;0.60;;;;;;;;;;4978045;28;20061;-76
2023/08/04 04:02:18;;;;;;;1.63;0.57;;;;;;;;;;4978809;28;20113;-77
2023/08/04 04:04:44;;;;;;;2.83;0.60;;;;;;;;;;4978244;28;20110;-77
2023/08/04 04:07:10;;;;;;;1.35;0.40;;;;;;;;;;4997327;28;20467;-80
2023/08/04 04:09:36;;;;;;;0.90;0.40;;;;;;;;;;4996439;28;20173;-79
2023/08/04 04:12:02;;;;;;;2.58;0.77;;;;;;;;;;4996798;28;20045;-79
2023/08/04 04:14:28;;;;;;;4.22;0.73;;;;;;;;;;5007742;28;20022;-77
2023/08/04 04:16:53;;;;;;;1.45;0.73;;;;;;;;;;4994258;28;20048;-80
2023/08/04 04:19:20;;;;;;;1.80;0.82;;;;;;;;;;4992121;28;20399;-77
2023/08/04 04:21:45;;;;;;;5.15;1.52;;;;;;;;;;4997334;28;20110;-77
2023/08/04 04:24:11;;;;;;;2.75;0.68;;;;;;;;;;4996190;28;20050;-78
2023/08/04 04:26:36;;;;;;;3.38;0.93;;;;;;;;;;4978024;28;20129;-78
2023/08/04 04:29:02;;;;;;;2.88;0.75;;;;;;;;;;4995778;28;20483;-78
2023/08/04 04:31:28;;;;;;;3.90;0.85;;;;;;;;;;4977808;28;20053;-77
2023/08/04 04:33:53;;;;;;;3.47;0.85;;;;;;;;;;5000844;28;20038;-77
2023/08/04 04:36:19;;;;;;;3.92;0.98;;;;;;;;;;4993050;28;20030;-77
2023/08/04 04:38:44;;;;;;;3.58;0.90;;;;;;;;;;5002146;28;20053;-77
2023/08/04 04:41:10;;;;;;;1.30;0.50;;;;;;;;;;5001713;28;20542;-78
2023/08/04 04:43:36;;;;;;;0.63;0.43;;;;;;;;;;4980195;28;20030;-80
2023/08/04 04:46:03;;;;;;;1.67;0.50;;;;;;;;;;4996181;28;20049;-79
2023/08/04 04:48:29;;;;;;;2.38;1.20;;;;;;;;;;4995842;28;20061;-78
2023/08/04 04:50:55;;;;;;;0.60;0.47;;;;;;;;;;4977469;28;20062;-79
2023/08/04 04:53:20;;;;;;;1.95;0.60;;;;;;;;;;4978813;28;20423;-79
2023/08/04 04:55:46;;;;;;;2.63;0.50;;;;;;;;;;4999375;28;20033;-77
2023/08/04 04:58:12;;;;;;;3.35;1.20;;;;;;;;;;5003913;28;20034;-76
2023/08/04 05:00:38;;;;;;;3.83;0.77;;;;;;;;;;5014967;28;20085;-78
2023/08/04 05:03:08;;;;;;;5.93;2.25;;;;;;;;;;5000215;28;20045;-76
2023/08/04 05:05:34;;;;;;;1.48;0.60;;;;;;;;;;5018814;28;20030;-77
2023/08/04 05:08:00;;;;;;;2.38;0.68;;;;;;;;;;4981749;28;20101;-77
2023/08/04 05:10:26;;;;;;;3.50;0.57;;;;;;;;;;4994823;28;20030;-75
2023/08/04 05:12:52;;;;;;;2.72;0.68;;;;;;;;;;5001033;28;20512;-78
2023/08/04 05:15:18;;;;;;;2.55;0.70;;;;;;;;;;5011206;28;20029;-78
2023/08/04 05:17:44;;;;;;;1.33;0.50;;;;;;;;;;4993899;28;20506;-76
2023/08/04 05:20:14;;;;;;;2.83;1.00;;;;;;;;;;4990040;28;20037;-78
2023/08/04 05:22:40;;;;;;;1.60;0.80;;;;;;;;;;4985466;28;20049;-76
2023/08/04 05:25:06;;;;;;;4.10;1.02;;;;;;;;;;5003491;28;20026;-76
2023/08/04 05:27:32;;;;;;;2.33;0.82;;;;;;;;;;4975533;28;20019;-75
2023/08/04 05:29:58;;;;;;;3.58;0.68;;;;;;;;;;5006025;28;20145;-77
2023/08/04 05:32:23;;;;;;;5.47;1.10;;;;;;;;;;5007400;28;20406;-75
2023/08/04 05:34:49;;;;;;;4.35;1.00;;;;;;;;;;4991138;28;20026;-77
2023/08/04 05:37:14;;;;;;;5.10;1.08;;;;;;;;;;5000633;28;20034;-77
2023/08/04 05:39:40;;;;;;;2.03;1.10;;;;;;;;;;5009362;28;20076;-76
2023/08/04 05:42:07;;;;;;;0.95;0.50;;;;;;;;;;4990782;28;20573;-77
2023/08/04 05:44:33;;;;;;;1.45;0.70;;;;;;;;;;4991375;28;20037;-75
2023/08/04 05:47:01;;;;;;;1.13;0.57;;;;;;;;;;4987385;28;20075;-77
2023/08/04 05:49:27;;;;;;;0.93;0.52;;;;;;;;;;5005693;28;20486;-75
2023/08/04 05:51:54;;;;;;;4.80;1.88;;;;;;;;;;4996787;28;20100;-78
2023/08/04 05:54:19;;;;;;;1.38;0.45;;;;;;;;;;4986948;28;20027;-77
2023/08/04 05:56:46;;;;;;;2.42;0.77;;;;;;;;;;5009591;28;20037;-75
2023/08/04 05:59:11;;;;;;;4.05;1.23;;;;;;;;;;5010364;28;20599;-77
2023/08/04 06:01:37;;;;;;;2.63;0.60;;;;;;;;;;5005717;28;20050;-77
2023/08/04 06:04:02;;;;;;;1.92;0.60;;;;;;;;;;5006973;28;20018;-76
2023/08/04 06:06:28;;;;;;;0.60;0.50;;;;;;;;;;5006521;28;20482;-77
2023/08/04 06:08:54;;;;;;;8.50;0.88;;;;;;;;;;5009909;28;20045;-76
2023/08/04 06:11:21;;;;;;;2.45;0.55;;;;;;;;;;4991534;28;20053;-79
2023/08/04 06:13:47;;;;;;;2.08;0.93;;;;;;;;;;4999739;28;20046;-75
2023/08/04 06:16:12;;;;;;;1.80;0.60;;;;;;;;;;4997348;28;20030;-76
2023/08/04 06:18:38;;;;;;;1.88;0.80;;;;;;;;;;4996258;28;20373;-76
2023/08/04 06:21:03;;;;;;;0.80;0.60;;;;;;;;;;4991670;28;20026;-75
2023/08/04 06:23:29;;;;;;;1.67;0.57;;;;;;;;;;4994999;28;20056;-76
2023/08/04 06:25:54;;;;;;;1.08;0.63;;;;;;;;;;4991997;28;20080;-78
2023/08/04 06:28:21;;;;;;;0.75;0.50;;;;;;;;;;4994140;28;20360;-77
2023/08/04 06:30:47;;;;;;;1.58;0.70;;;;;;;;;;4992887;28;20030;-78
2023/08/04 06:33:12;;;;;;;2.20;1.20;;;;;;;;;;5021550;28;20046;-77
2023/08/04 06:35:41;;;;;;;0.93;0.57;;;;;;;;;;5009402;28;20368;-77
2023/08/04 06:38:10;;;;;;;1.25;0.38;;;;;;;;;;4991562;28;20023;-77
2023/08/04 06:40:36;;;;;;;4.97;0.82;;;;;;;;;;4994949;28;20030;-77
2023/08/04 06:43:02;;;;;;;4.53;0.80;;;;;;;;;;4990955;28;20026;-77
2023/08/04 06:45:28;;;;;;;0.73;0.50;;;;;;;;;;4991942;28;20084;-77
2023/08/04 06:47:54;;;;;;;2.45;0.93;;;;;;;;;;5011605;28;20022;-75
2023/08/04 06:50:19;;;;;;;0.60;0.57;;;;;;;;;;5011079;28;20025;-74
2023/08/04 06:52:45;;;;;;;6.10;0.82;;;;;;;;;;4993342;28;20042;-77
2023/08/04 06:55:11;;;;;;;1.20;0.80;;;;;;;;;;4992414;28;20053;-77
2023/08/04 06:57:36;;;;;;;1.52;0.30;;;;;;;;;;4991113;28;20514;-76
2023/08/04 07:00:03;;;;;;;0.63;0.50;;;;;;;;;;5007174;28;20352;-77
2023/08/04 07:02:28;;;;;;;1.95;0.50;;;;;;;;;;4990349;28;20030;-77
2023/08/04 07:04:54;;;;;;;0.82;0.50;;;;;;;;;;4991464;28;20489;-78
2023/08/04 07:07:30;;;;;;;1.20;0.88;;;;;;;;;;5006133;28;20030;-78
2023/08/04 07:09:59;;;;;;;1.00;0.57;;;;;;;;;;5016303;28;20037;-78
2023/08/04 07:12:28;;;;;;;1.65;0.70;;;;;;;;;;5004945;28;20030;-77
2023/08/04 07:14:57;;;;;;;1.83;0.70;;;;;;;;;;5015548;28;20105;-78
2023/08/04 07:17:27;;;;;;;1.27;0.52;;;;;;;;;;5027790;28;20038;-79
2023/08/04 07:19:59;;;;;;;2.55;0.60;;;;;;;;;;4996691;28;20030;-78
2023/08/04 07:22:28;;;;;;;0.93;0.60;;;;;;;;;;5004102;28;20029;-78
2023/08/04 07:24:59;;;;;;;1.10;0.70;;;;;;;;;;5032140;28;20041;-78
2023/08/04 07:27:34;;;;;;;2.67;0.65;;;;;;;;;;5004118;28;20034;-81
2023/08/04 07:30:08;;;;;;;1.90;0.70;;;;;;;;;;5016238;28;20088;-78
2023/08/04 07:32:35;;;;;;;1.70;0.80;;;;;;;;;;5025816;28;20062;-77
2023/08/04 07:35:01;;;;;;;1.48;0.70;;;;;;;;;;5023952;28;20022;-79
2023/08/04 07:37:32;;;;;;;1.77;0.90;;;;;;;;;;5020150;28;20100;-78
2023/08/04 07:39:59;;;;;;;2.42;1.40;;;;;;;;;;5023333;28;20041;-78
2023/08/04 07:42:29;;;;;;;2.42;0.75;;;;;;;;;;5004620;28;20049;-80
2023/08/04 07:45:00;;;;;;;2.42;0.43;;;;;;;;;;4999632;28;20057;-78
2023/08/04 07:47:26;;;;;;;0.60;0.50;;;;;;;;;;5014900;28;20050;-79
2023/08/04 07:50:02;;;;;;;1.48;0.60;;;;;;;;;;5030156;28;20050;-77
2023/08/04 07:52:28;;;;;;;1.63;0.80;;;;;;;;;;5029979;28;20025;-79
2023/08/04 07:54:53;;;;;;;0.40;0.30;;;;;;;;;;5032204;28;20030;-77
2023/08/04 07:57:19;;;;;;;3.00;0.60;;;;;;;;;;5014249;28;20030;-80
2023/08/04 07:59:50;;;;;;;3.80;0.73;;;;;;;;;;4989655;28;20048;-80
2023/08/04 08:02:16;;;;;;;4.82;0.60;;;;;;;;;;5012950;28;20057;-78
2023/08/04 08:04:46;;;;;;;2.08;0.90;;;;;;;;;;5026506;28;20117;-80
2023/08/04 08:07:12;;;;;;;2.42;0.57;;;;;;;;;;5025271;28;20044;-80
2023/08/04 08:09:38;;;;;;;3.20;0.70;;;;;;;;;;5027296;28;20032;-79
2023/08/04 08:12:07;;;;;;;1.95;0.82;;;;;;;;;;5026066;28;20053;-80
2023/08/04 08:14:36;;;;;;;0.75;0.45;;;;;;;;;;5022928;28;20025;-79
2023/08/04 08:17:03;;;;;;;1.23;0.60;;;;;;;;;;5020232;28;20091;-80
2023/08/04 08:19:31;;;;;;;2.67;0.80;;;;;;;;;;5015465;28;20034;-80
2023/08/04 08:22:01;;;;;;;1.27;0.77;;;;;;;;;;5006070;28;20025;-79
2023/08/04 08:24:33;;;;;;;0.82;0.52;;;;;;;;;;5020652;28;20033;-81
2023/08/04 08:26:59;;;;;;;2.42;0.60;;;;;;;;;;5015457;28;20021;-73
2023/08/04 08:29:32;;;;;;;2.38;1.92;;;;;;;;;;5013117;28;20086;-77
2023/08/04 08:32:00;;;;;;;2.17;0.70;;;;;;;;;;5012311;28;20042;-79
2023/08/04 08:34:27;;;;;;;2.05;0.50;;;;;;;;;;4991553;28;20023;-79
2023/08/04 08:36:57;;;;;;;3.08;0.55;;;;;;;;;;4965453;28;20044;-80
2023/08/04 08:39:33;;;;;;;4.43;0.57;;;;;;;;;;4978081;28;20383;-78
2023/08/04 08:42:00;;;;;;;2.40;0.70;;;;;;;;;;4976583;28;20585;-79
2023/08/04 08:44:34;;;;;;;4.55;0.68;;;;;;;;;;4980418;28;20093;-79
2023/08/04 08:47:05;;;;;;;0.95;0.40;;;;;;;;;;4978462;28;20018;-80
2023/08/04 08:49:46;;;;;;;3.00;0.50;;;;;;;;;;4992150;28;20039;-80
2023/08/04 08:52:18;;;;;;;2.17;0.77;;;;;;;;;;4979301;28;20026;-78
2023/08/04 08:54:58;;;;;;;1.50;0.60;;;;;;;;;;4976077;28;20038;-78
2023/08/04 08:57:29;;;;;;;1.90;0.60;;;;;;;;;;4974083;28;20052;-79
2023/08/04 09:00:02;;;;;;;0.95;0.60;;;;;;;;;;4979041;28;20101;-80
2023/08/04 09:02:36;;;;;;;1.25;0.50;;;;;;;;;;4982787;28;20035;-80
2023/08/04 09:05:08;;;;;;;2.03;0.50;;;;;;;;;;4987039;28;20037;-78
2023/08/04 09:07:37;;;;;;;1.00;0.55;;;;;;;;;;4988329;28;20077;-79
2023/08/04 09:10:07;;;;;;;1.80;0.73;;;;;;;;;;4976961;28;20058;-78
2023/08/04 09:12:33;;;;;;;1.05;0.50;;;;;;;;;;4986028;28;20065;-79
2023/08/04 09:15:01;;;;;;;2.00;0.73;;;;;;;;;;5004728;28;20022;-79
2023/08/04 09:17:38;;;;;;;1.02;0.45;;;;;;;;;;4988366;28;20050;-80
2023/08/04 09:20:07;;;;;;;4.50;1.35;;;;;;;;;;4982310;28;20030;-78
2023/08/04 09:22:44;;;;;;;2.70;1.10;;;;;;;;;;4986904;28;20570;-79
2023/08/04 09:25:10;;;;;;;2.78;0.77;;;;;;;;;;4988347;28;20031;-78
2023/08/04 09:27:39;;;;;;;1.33;0.88;;;;;;;;;;4989878;28;20029;-79
2023/08/04 09:30:11;;;;;;;2.85;0.90;;;;;;;;;;5007872;28;20061;-79
2023/08/04 09:32:43;;;;;;;2.50;0.63;;;;;;;;;;5012761;28;20045;-78
2023/08/04 09:35:10;;;;;;;0.85;0.50;;;;;;;;;;5027585;28;20101;-78
2023/08/04 09:37:39;;;;;;;3.97;0.77;;;;;;;;;;5015693;28;20140;-78
2023/08/04 09:40:35;;;;;;;1.50;0.55;;;;;;;;;;5018537;28;20036;-81
2023/08/04 09:43:02;;;;;;;0.57;0.43;;;;;;;;;;5020258;28;20130;-79
2023/08/04 09:45:33;;;;;;;1.27;0.60;;;;;;;;;;5021279;28;20451;-80
2023/08/04 09:47:59;;;;;;;2.60;0.68;;;;;;;;;;5008064;28;20125;-79
2023/08/04 09:50:30;;;;;;;0.60;0.60;;;;;;;;;;5013702;28;20084;-78
2023/08/04 09:53:06;;;;;;;1.42;0.60;;;;;;;;;;5021675;28;20030;-80
2023/08/04 09:55:32;;;;;;;1.15;0.75;;;;;;;;;;5018002;28;20037;-80
2023/08/04 09:58:00;;;;;;;3.45;0.55;;;;;;;;;;5013728;28;20387;-79
2023/08/04 10:00:27;;;;;;;1.83;0.80;;;;;;;;;;5028138;28;20029;-76
2023/08/04 10:02:55;;;;;;;2.65;0.65;;;;;;;;;;5017533;28;20030;-79
2023/08/04 10:05:23;;;;;;;4.00;0.80;;;;;;;;;;5002053;28;20038;-79
2023/08/04 10:07:49;;;;;;;0.77;0.63;;;;;;;;;;5034779;28;20041;-79
2023/08/04 10:10:16;;;;;;;2.00;0.77;;;;;;;;;;5026806;28;20044;-81
2023/08/04 10:12:44;;;;;;;1.10;0.50;;;;;;;;;;5020123;28;20035;-80
2023/08/04 10:15:13;;;;;;;1.13;0.60;;;;;;;;;;5012401;28;20030;-79
2023/08/04 10:17:41;;;;;;;1.27;0.77;;;;;;;;;;5016725;28;20029;-77
2023/08/04 10:20:19;;;;;;;2.08;0.60;;;;;;;;;;5006207;28;20104;-78
2023/08/04 10:22:49;;;;;;;1.35;0.73;;;;;;;;;;5016795;28;20057;-76
2023/08/04 10:25:16;;;;;;;0.87;0.43;;;;;;;;;;4997312;28;20034;-79
2023/08/04 10:27:49;;;;;;;0.85;0.50;;;;;;;;;;5008867;28;20057;-80
2023/08/04 10:30:18;;;;;;;1.75;0.60;;;;;;;;;;5015112;28;20025;-79
2023/08/04 10:32:47;;;;;;;0.77;0.73;;;;;;;;;;5009811;28;20050;-78
2023/08/04 10:35:19;;;;;;;1.10;0.55;;;;;;;;;;5021360;28;20036;-79
2023/08/04 10:37:58;;;;;;;0.80;0.68;;;;;;;;;;5023136;28;20030;-79
2023/08/04 10:40:42;;;;;;;1.02;0.70;;;;;;;;;;5010762;28;20053;-77
2023/08/04 10:43:20;;;;;;;1.00;0.60;;;;;;;;;;5006407;28;20038;-77
2023/08/04 10:45:53;;;;;;;1.08;0.50;;;;;;;;;;5014227;28;20401;-78
2023/08/04 10:48:23;;;;;;;0.77;0.40;;;;;;;;;;5003289;28;20057;-77
2023/08/04 10:50:55;;;;;;;1.40;0.82;;;;;;;;;;5024779;28;20061;-80
2023/08/04 10:53:21;;;;;;;5.45;1.20;;;;;;;;;;5004141;28;20096;-77
2023/08/04 10:55:52;;;;;;;2.53;0.57;;;;;;;;;;5012460;28;20473;-78
2023/08/04 10:58:18;;;;;;;2.40;1.42;;;;;;;;;;4993822;28;20061;-77
2023/08/04 11:00:47;;;;;;;1.23;0.50;;;;;;;;;;5013309;28;20033;-77
2023/08/04 11:03:36;;;;;;;1.98;0.65;;;;;;;;;;5010410;28;20037;-79
2023/08/04 11:06:21;;;;;;;2.38;0.70;;;;;;;;;;5013579;28;20034;-79
2023/08/04 11:08:48;;;;;;;0.70;0.35;;;;;;;;;;5000168;28;20779;-78
2023/08/04 11:11:21;;;;;;;0.47;0.38;;;;;;;;;;5010177;28;20033;-78
2023/08/04 11:13:56;;;;;;;3.10;0.77;;;;;;;;;;5015878;28;20028;-77
2023/08/04 11:16:36;;;;;;;;;;;;;;;;;;;;;
2023/08/04 11:19:19;;;;;;;1.70;0.50;;;;;;;;;;5012093;28;20113;-77
2023/08/04 11:21:45;;;;;;;0.98;0.52;;;;;;;;;;5011440;28;20033;-76
2023/08/04 11:24:11;;;;;;;0.52;0.43;;;;;;;;;;5007989;28;20088;-78
2023/08/04 11:26:37;;;;;;;0.82;0.57;;;;;;;;;;5020247;28;20033;-77
2023/08/04 11:29:11;;;;;;;0.68;0.38;;;;;;;;;;5018027;28;20033;-75
2023/08/04 11:31:45;;;;;;;2.00;0.70;;;;;;;;;;5033508;28;20032;-77
2023/08/04 11:34:16;;;;;;;3.95;0.47;;;;;;;;;;4996316;28;20033;-77
2023/08/04 11:36:43;;;;;;;1.52;0.32;;;;;;;;;;4995215;28;20029;-75
2023/08/04 11:39:09;;;;;;;1.13;0.38;;;;;;;;;;4993387;28;20042;-79
2023/08/04 11:41:41;;;;;;;5.35;0.65;;;;;;;;;;5001234;28;20037;-78
2023/08/04 11:44:10;;;;;;;2.22;0.50;;;;;;;;;;5005415;28;20488;-77
2023/08/04 11:46:38;;;;;;;1.95;0.60;;;;;;;;;;5004680;28;20085;-76
2023/08/04 11:49:18;;;;;;;2.70;0.45;;;;;;;;;;4996479;28;20040;-80
2023/08/04 11:51:49;;;;;;;1.83;0.57;;;;;;;;;;4998836;28;20390;-80
2023/08/04 11:54:27;;;;;;;6.40;1.63;;;;;;;;;;4981003;28;20038;-80
2023/08/04 11:57:06;;;;;;;1.92;0.88;;;;;;;;;;4996229;28;20026;-78
2023/08/04 11:59:32;;;;;;;2.38;0.73;;;;;;;;;;4995745;28;20395;-78
2023/08/04 12:02:26;;;;;;;1.92;0.60;;;;;;;;;;5006595;28;20044;-79
2023/08/04 12:05:14;;;;;;;1.40;0.50;;;;;;;;;;4985983;28;20152;-77
2023/08/04 12:07:40;;;;;;;2.95;0.75;;;;;;;;;;4984031;28;20483;-76
2023/08/04 12:10:23;;;;;;;2.42;0.90;;;;;;;;;;5008549;28;20042;-77
2023/08/04 12:12:53;;;;;;;0.63;0.57;;;;;;;;;;5007134;28;20044;-77
2023/08/04 12:15:26;;;;;;;3.57;0.83;;;;;;;;;;4991614;28;20050;-78
2023/08/04 12:18:00;;;;;;;1.58;0.35;;;;;;;;;;5000933;28;20026;-79
2023/08/04 12:20:33;;;;;;;5.13;0.75;;;;;;;;;;5010059;28;20030;-77
2023/08/04 12:23:13;;;;;;;3.42;0.82;;;;;;;;;;5016105;28;20084;-78
2023/08/04 12:25:43;;;;;;;3.47;0.90;;;;;;;;;;4989967;28;20046;-80
2023/08/04 12:28:16;;;;;;;1.23;0.60;;;;;;;;;;4987715;28;20090;-78
2023/08/04 12:30:43;;;;;;;1.05;0.40;;;;;;;;;;4997342;28;20040;-77
2023/08/04 12:33:11;;;;;;;1.08;0.80;;;;;;;;;;5023131;28;20049;-78
2023/08/04 12:35:38;;;;;;;1.10;0.50;;;;;;;;;;4996791;28;20378;-79
2023/08/04 12:38:25;;;;;;;2.22;0.57;;;;;;;;;;5014723;28;20430;-78
2023/08/04 12:41:11;;;;;;;;;;;;;;;;;;;;;
2023/08/04 12:43:43;;;;;;;0.47;0.47;;;;;;;;;;5016830;28;20401;-78
2023/08/04 12:46:13;;;;;;;1.15;0.70;;;;;;;;;;5017130;28;20394;-78
2023/08/04 12:48:49;;;;;;;4.68;0.95;;;;;;;;;;5017275;28;20024;-79
2023/08/04 12:51:16;;;;;;;0.75;0.70;;;;;;;;;;5042448;28;20121;-76
2023/08/04 12:53:50;;;;;;;5.20;0.85;;;;;;;;;;5022981;28;20026;-78
2023/08/04 12:56:23;;;;;;;1.98;0.57;;;;;;;;;;5004683;28;20037;-79
2023/08/04 12:58:49;;;;;;;0.90;0.50;;;;;;;;;;5024341;28;20030;-78
2023/08/04 13:01:40;;;;;;;3.92;1.00;;;;;;;;;;5019788;28;20034;-80
2023/08/04 13:04:18;;;;;;;1.17;0.47;;;;;;;;;;5019451;28;20044;-78
2023/08/04 13:07:11;;;;;;;2.42;0.70;;;;;;;;;;5011745;28;20044;-78
2023/08/04 13:09:37;;;;;;;2.30;0.90;;;;;;;;;;5015646;28;20036;-78
2023/08/04 13:12:04;;;;;;;2.63;0.60;;;;;;;;;;5033059;28;20037;-78
2023/08/04 13:14:42;;;;;;;7.90;1.10;;;;;;;;;;5020382;28;20034;-79
2023/08/04 13:17:15;;;;;;;1.75;0.80;;;;;;;;;;4987989;28;20080;-79
2023/08/04 13:19:52;;;;;;;0.70;0.60;;;;;;;;;;5013165;28;20434;-79
2023/08/04 13:22:30;;;;;;;1.83;0.77;;;;;;;;;;4995280;28;20074;-78
2023/08/04 13:25:00;;;;;;;2.72;0.98;;;;;;;;;;5009412;28;20099;-78
2023/08/04 13:27:30;;;;;;;1.70;0.93;;;;;;;;;;5001854;28;20045;-78
2023/08/04 13:30:13;;;;;;;1.90;1.05;;;;;;;;;;5009239;28;20026;-78
2023/08/04 13:32:42;;;;;;;1.23;0.85;;;;;;;;;;5014361;28;20062;-79
2023/08/04 13:35:20;;;;;;;0.88;0.63;;;;;;;;;;5008285;28;20022;-77
2023/08/04 13:37:47;;;;;;;2.42;0.95;;;;;;;;;;5002378;28;20030;-78
2023/08/04 13:40:14;;;;;;;2.97;0.82;;;;;;;;;;4978356;28;20046;-78
2023/08/04 13:42:43;;;;;;;1.92;1.02;;;;;;;;;;4993199;28;20038;-79
2023/08/04 13:45:11;;;;;;;2.53;0.90;;;;;;;;;;4977560;28;20518;-77
2023/08/04 13:47:52;;;;;;;1.05;0.60;;;;;;;;;;4993782;28;20517;-79
2023/08/04 13:50:22;;;;;;;4.10;0.82;;;;;;;;;;4977400;28;20076;-78
2023/08/04 13:52:54;;;;;;;1.25;0.90;;;;;;;;;;4978653;28;20034;-79
2023/08/04 13:55:32;;;;;;;4.72;0.70;;;;;;;;;;4996152;28;20344;-79
2023/08/04 13:58:04;;;;;;;0.98;0.65;;;;;;;;;;4978519;28;20030;-78
2023/08/04 14:01:03;;;;;;;3.33;0.77;;;;;;;;;;4997271;28;20037;-79
2023/08/04 14:03:36;;;;;;;3.17;1.10;;;;;;;;;;4978725;28;20042;-79
2023/08/04 14:06:05;;;;;;;2.88;0.90;;;;;;;;;;4996298;28;20145;-79
2023/08/04 14:08:32;;;;;;;4.00;0.68;;;;;;;;;;4979698;28;20066;-79
2023/08/04 14:11:03;;;;;;;5.20;0.90;;;;;;;;;;4979209;28;20076;-79
2023/08/04 14:13:36;;;;;;;2.28;0.52;;;;;;;;;;4965440;28;20034;-79
2023/08/04 14:16:13;;;;;;;3.28;1.13;;;;;;;;;;4983972;28;20383;-78
2023/08/04 14:18:47;;;;;;;2.58;0.80;;;;;;;;;;4989982;28;20026;-80
2023/08/04 14:21:17;;;;;;;2.53;1.02;;;;;;;;;;4990652;28;20038;-78
2023/08/04 14:23:48;;;;;;;1.45;0.65;;;;;;;;;;4988547;28;20027;-78
2023/08/04 14:26:14;;;;;;;;;;;;;;;;;;4987660;28;20485;-77
2023/08/04 14:28:41;;;;;;;1.60;1.38;;;;;;;;;;5001209;28;19909;-78
2023/08/04 14:31:10;;;;;;;3.03;1.35;;;;;;;;;;5007225;28;20030;-78
2023/08/04 14:33:37;;;;;;;1.80;0.75;;;;;;;;;;5022298;28;20042;-79
2023/08/04 14:36:06;;;;;;;2.72;1.33;;;;;;;;;;5023868;28;20057;-77
2023/08/04 14:38:42;;;;;;;1.98;1.10;;;;;;;;;;5036731;28;20029;-78
2023/08/04 14:41:09;;;;;;;1.92;0.80;;;;;;;;;;5016082;28;20477;-79
2023/08/04 14:43:35;;;;;;;2.17;1.10;;;;;;;;;;5031124;28;20121;-78
2023/08/04 14:46:02;;;;;;;1.33;0.80;;;;;;;;;;5030578;28;20482;-77
2023/08/04 14:48:28;;;;;;;2.67;1.10;;;;;;;;;;5017428;28;20061;-78
2023/08/04 14:50:55;;;;;;;1.67;1.00;;;;;;;;;;5015431;28;20045;-78
2023/08/04 14:53:31;;;;;;;2.88;1.30;;;;;;;;;;4997537;28;20026;-78
2023/08/04 14:56:06;;;;;;;0.90;0.70;;;;;;;;;;4994534;28;20033;-80